createdAt,value
2022-09-12T00:17:52.474Z,13.38
2022-09-12T00:47:57.508Z,15.77
2022-09-12T01:18:11.317Z,17.27
2022-09-12T01:48:18.304Z,15.93
2022-09-12T02:18:22.841Z,16.45
2022-09-12T02:48:29.298Z,17.73
2022-09-12T03:18:44.433Z,19.42
2022-09-12T03:48:48.736Z,17.20
2022-09-12T04:18:52.900Z,15.80
2022-09-12T04:48:57.288Z,17.10
2022-09-12T05:19:01.511Z,19.83
2022-09-12T05:49:07.453Z,15.32
2022-09-12T06:19:16.095Z,19.58
2022-09-12T06:49:20.173Z,13.10
2022-09-12T07:49:29.161Z,13.52
2022-09-12T08:19:33.381Z,12.18
2022-09-12T08:49:41.060Z,10.10
2022-09-12T09:19:51.045Z,10.07
2022-09-12T09:49:55.225Z,9.20
2022-09-12T10:20:20.007Z,9.75
2022-09-12T10:50:29.414Z,7.45
2022-09-12T11:20:49.615Z,5.35
2022-09-12T11:50:54.947Z,5.60
2022-09-12T12:21:22.987Z,4.40
2022-09-12T12:51:48.651Z,3.65
2022-09-12T13:22:01.155Z,3.25
2022-09-12T13:52:07.354Z,3.50
2022-09-12T14:22:17.944Z,3.35
2022-09-12T15:04:43.029Z,3.30
2022-09-12T15:34:47.140Z,3.65
2022-09-12T16:04:54.581Z,3.22
2022-09-12T16:34:58.845Z,2.85
2022-09-12T17:05:02.957Z,3.45
2022-09-12T17:35:08.052Z,3.97
2022-09-12T18:05:12.178Z,18.85
2022-09-12T18:35:16.705Z,5.10
2022-09-12T19:05:20.923Z,5.45
2022-09-12T19:35:25.228Z,5.05
2022-09-12T20:05:29.344Z,7.00
2022-09-12T20:35:33.780Z,4.45
2022-09-12T21:05:37.932Z,2.97
2022-09-12T21:35:42.103Z,3.50
2022-09-12T22:05:46.178Z,6.05
2022-09-12T22:35:50.337Z,4.30
2022-09-12T23:05:54.427Z,4.30
2022-09-12T23:36:02.127Z,3.97
